sensor_id;sensor_type;location;lat;lon;timestamp;temperature;humidity
4787;DHT22;62338;48.832;9.422;2023-04-24T00:00:18;9.20;99.90
4787;DHT22;62338;48.832;9.422;2023-04-24T00:02:19;9.20;99.90
4787;DHT22;62338;48.832;9.422;2023-04-24T00:04:21;9.10;99.90
4787;DHT22;62338;48.832;9.422;2023-04-24T00:06:23;9.20;99.90
4787;DHT22;62338;48.832;9.422;2023-04-24T00:08:25;9.20;99.90
4787;DHT22;62338;48.832;9.422;2023-04-24T00:10:27;9.10;99.90
4787;DHT22;62338;48.832;9.422;2023-04-24T00:12:29;9.10;99.90
4787;DHT22;62338;48.832;9.422;2023-04-24T00:14:31;9.10;99.90
4787;DHT22;62338;48.832;9.422;2023-04-24T00:16:33;9.10;99.90
4787;DHT22;62338;48.832;9.422;2023-04-24T00:18:34;9.20;99.90
4787;DHT22;62338;48.832;9.422;2023-04-24T00:20:36;9.20;99.90
4787;DHT22;62338;48.832;9.422;2023-04-24T00:22:38;9.30;99.90
4787;DHT22;62338;48.832;9.422;2023-04-24T00:24:40;9.40;99.90
4787;DHT22;62338;48.832;9.422;2023-04-24T00:26:41;9.40;99.90
4787;DHT22;62338;48.832;9.422;2023-04-24T00:28:43;9.40;99.90
4787;DHT22;62338;48.832;9.422;2023-04-24T00:30:45;9.40;99.90
4787;DHT22;62338;48.832;9.422;2023-04-24T00:32:47;9.30;99.90
4787;DHT22;62338;48.832;9.422;2023-04-24T00:34:48;9.40;99.90
4787;DHT22;62338;48.832;9.422;2023-04-24T00:36:50;9.40;99.90
4787;DHT22;62338;48.832;9.422;2023-04-24T00:38:54;9.40;99.90
4787;DHT22;62338;48.832;9.422;2023-04-24T00:40:56;9.40;99.90
4787;DHT22;62338;48.832;9.422;2023-04-24T00:42:57;9.40;99.90
4787;DHT22;62338;48.832;9.422;2023-04-24T00:45:00;9.40;99.90
4787;DHT22;62338;48.832;9.422;2023-04-24T00:47:02;9.40;99.90
4787;DHT22;62338;48.832;9.422;2023-04-24T00:49:05;9.40;99.90
4787;DHT22;62338;48.832;9.422;2023-04-24T00:51:07;9.40;99.90
4787;DHT22;62338;48.832;9.422;2023-04-24T00:53:09;9.40;99.90
4787;DHT22;62338;48.832;9.422;2023-04-24T00:55:11;9.40;99.90
4787;DHT22;62338;48.832;9.422;2023-04-24T00:57:13;9.40;99.90
4787;DHT22;62338;48.832;9.422;2023-04-24T00:59:17;9.40;99.90
4787;DHT22;62338;48.832;9.422;2023-04-24T01:01:20;9.40;99.90
4787;DHT22;62338;48.832;9.422;2023-04-24T01:03:25;9.40;82.30
4787;DHT22;62338;48.832;9.422;2023-04-24T01:05:28;9.40;96.20
4787;DHT22;62338;48.832;9.422;2023-04-24T01:07:30;9.40;99.90
4787;DHT22;62338;48.832;9.422;2023-04-24T01:09:32;9.40;99.90
4787;DHT22;62338;48.832;9.422;2023-04-24T01:11:33;9.40;99.90
4787;DHT22;62338;48.832;9.422;2023-04-24T01:13:35;9.40;81.50
4787;DHT22;62338;48.832;9.422;2023-04-24T01:15:37;9.40;98.30
4787;DHT22;62338;48.832;9.422;2023-04-24T01:17:39;9.40;99.90
4787;DHT22;62338;48.832;9.422;2023-04-24T01:19:41;9.40;99.90
4787;DHT22;62338;48.832;9.422;2023-04-24T01:21:43;9.40;71.50
4787;DHT22;62338;48.832;9.422;2023-04-24T01:23:45;9.40;75.50
4787;DHT22;62338;48.832;9.422;2023-04-24T01:25:48;9.40;99.90
4787;DHT22;62338;48.832;9.422;2023-04-24T01:27:51;9.40;97.00
4787;DHT22;62338;48.832;9.422;2023-04-24T01:29:52;9.40;99.90
4787;DHT22;62338;48.832;9.422;2023-04-24T01:31:55;9.40;99.90
4787;DHT22;62338;48.832;9.422;2023-04-24T01:33:57;9.40;99.90
4787;DHT22;62338;48.832;9.422;2023-04-24T01:35:59;9.40;99.90
4787;DHT22;62338;48.832;9.422;2023-04-24T01:38:01;9.40;97.90
4787;DHT22;62338;48.832;9.422;2023-04-24T01:40:05;9.40;99.90
4787;DHT22;62338;48.832;9.422;2023-04-24T01:42:08;9.40;91.60
4787;DHT22;62338;48.832;9.422;2023-04-24T01:44:10;9.40;92.60
4787;DHT22;62338;48.832;9.422;2023-04-24T01:46:11;9.40;95.90
4787;DHT22;62338;48.832;9.422;2023-04-24T01:48:13;9.40;94.30
4787;DHT22;62338;48.832;9.422;2023-04-24T01:50:16;9.40;90.20
4787;DHT22;62338;48.832;9.422;2023-04-24T01:52:17;9.40;99.90
4787;DHT22;62338;48.832;9.422;2023-04-24T01:54:20;9.40;88.70
4787;DHT22;62338;48.832;9.422;2023-04-24T01:56:22;9.40;79.20
4787;DHT22;62338;48.832;9.422;2023-04-24T01:58:24;9.40;85.40
4787;DHT22;62338;48.832;9.422;2023-04-24T02:00:26;9.40;92.20
4787;DHT22;62338;48.832;9.422;2023-04-24T02:02:27;9.40;95.60
4787;DHT22;62338;48.832;9.422;2023-04-24T02:04:30;9.30;99.90
4787;DHT22;62338;48.832;9.422;2023-04-24T02:06:32;9.30;96.50
4787;DHT22;62338;48.832;9.422;2023-04-24T02:08:34;9.30;99.90
4787;DHT22;62338;48.832;9.422;2023-04-24T02:10:35;9.30;99.90
4787;DHT22;62338;48.832;9.422;2023-04-24T02:12:37;9.30;99.90
4787;DHT22;62338;48.832;9.422;2023-04-24T02:14:39;9.30;99.90
4787;DHT22;62338;48.832;9.422;2023-04-24T02:16:40;9.30;99.90
4787;DHT22;62338;48.832;9.422;2023-04-24T02:18:42;9.30;99.90
4787;DHT22;62338;48.832;9.422;2023-04-24T02:20:44;9.30;99.90
4787;DHT22;62338;48.832;9.422;2023-04-24T02:22:46;9.30;99.90
4787;DHT22;62338;48.832;9.422;2023-04-24T02:24:48;9.40;74.70
4787;DHT22;62338;48.832;9.422;2023-04-24T02:26:50;9.40;94.20
4787;DHT22;62338;48.832;9.422;2023-04-24T02:28:51;9.40;81.40
4787;DHT22;62338;48.832;9.422;2023-04-24T02:30:53;9.30;71.70
4787;DHT22;62338;48.832;9.422;2023-04-24T02:32:55;9.30;81.50
4787;DHT22;62338;48.832;9.422;2023-04-24T02:34:56;9.30;86.40
4787;DHT22;62338;48.832;9.422;2023-04-24T02:36:58;9.30;86.80
4787;DHT22;62338;48.832;9.422;2023-04-24T02:39:00;9.30;92.10
4787;DHT22;62338;48.832;9.422;2023-04-24T02:41:02;9.30;70.70
4787;DHT22;62338;48.832;9.422;2023-04-24T02:43:07;9.30;97.90
4787;DHT22;62338;48.832;9.422;2023-04-24T02:45:09;9.30;66.90
4787;DHT22;62338;48.832;9.422;2023-04-24T02:47:11;9.30;92.20
4787;DHT22;62338;48.832;9.422;2023-04-24T02:49:13;9.30;68.70
4787;DHT22;62338;48.832;9.422;2023-04-24T02:51:14;9.40;84.60
4787;DHT22;62338;48.832;9.422;2023-04-24T02:53:16;9.40;69.50
4787;DHT22;62338;48.832;9.422;2023-04-24T02:55:18;9.40;91.60
4787;DHT22;62338;48.832;9.422;2023-04-24T02:57:20;9.40;59.50
4787;DHT22;62338;48.832;9.422;2023-04-24T02:59:22;9.50;70.90
4787;DHT22;62338;48.832;9.422;2023-04-24T03:01:24;9.50;82.80
4787;DHT22;62338;48.832;9.422;2023-04-24T03:03:26;9.50;95.80
4787;DHT22;62338;48.832;9.422;2023-04-24T03:05:28;9.50;95.90
4787;DHT22;62338;48.832;9.422;2023-04-24T03:07:30;9.40;99.90
4787;DHT22;62338;48.832;9.422;2023-04-24T03:09:33;9.30;99.90
4787;DHT22;62338;48.832;9.422;2023-04-24T03:11:34;9.20;99.90
4787;DHT22;62338;48.832;9.422;2023-04-24T03:13:36;9.00;99.90
4787;DHT22;62338;48.832;9.422;2023-04-24T03:15:38;8.90;99.90
4787;DHT22;62338;48.832;9.422;2023-04-24T03:17:39;8.80;99.90
4787;DHT22;62338;48.832;9.422;2023-04-24T03:19:41;8.70;99.90
4787;DHT22;62338;48.832;9.422;2023-04-24T03:21:43;8.70;99.90
4787;DHT22;62338;48.832;9.422;2023-04-24T03:23:46;8.60;99.90
4787;DHT22;62338;48.832;9.422;2023-04-24T03:25:48;8.60;99.90
4787;DHT22;62338;48.832;9.422;2023-04-24T03:27:50;8.50;99.90
4787;DHT22;62338;48.832;9.422;2023-04-24T03:29:51;8.50;99.90
4787;DHT22;62338;48.832;9.422;2023-04-24T03:31:56;8.50;99.90
4787;DHT22;62338;48.832;9.422;2023-04-24T03:33:58;8.40;99.90
4787;DHT22;62338;48.832;9.422;2023-04-24T03:35:59;8.40;99.90
4787;DHT22;62338;48.832;9.422;2023-04-24T03:38:01;8.40;99.90
4787;DHT22;62338;48.832;9.422;2023-04-24T03:40:03;8.40;99.90
4787;DHT22;62338;48.832;9.422;2023-04-24T03:42:06;8.40;99.90
4787;DHT22;62338;48.832;9.422;2023-04-24T03:44:07;8.40;99.90
4787;DHT22;62338;48.832;9.422;2023-04-24T03:46:09;8.40;99.90
4787;DHT22;62338;48.832;9.422;2023-04-24T03:48:11;8.40;99.90
4787;DHT22;62338;48.832;9.422;2023-04-24T03:50:12;8.40;99.90
4787;DHT22;62338;48.832;9.422;2023-04-24T03:52:14;8.50;99.90
4787;DHT22;62338;48.832;9.422;2023-04-24T03:54:16;8.50;99.90
4787;DHT22;62338;48.832;9.422;2023-04-24T03:56:18;8.50;99.90
4787;DHT22;62338;48.832;9.422;2023-04-24T03:58:19;8.50;99.90
4787;DHT22;62338;48.832;9.422;2023-04-24T04:00:21;8.50;99.90
4787;DHT22;62338;48.832;9.422;2023-04-24T04:02:23;8.50;99.90
4787;DHT22;62338;48.832;9.422;2023-04-24T04:04:25;8.50;99.90
4787;DHT22;62338;48.832;9.422;2023-04-24T04:06:27;8.50;99.90
4787;DHT22;62338;48.832;9.422;2023-04-24T04:08:29;8.50;99.90
4787;DHT22;62338;48.832;9.422;2023-04-24T04:10:31;8.40;99.90
4787;DHT22;62338;48.832;9.422;2023-04-24T04:12:33;8.40;99.90
4787;DHT22;62338;48.832;9.422;2023-04-24T04:14:35;8.40;99.90
4787;DHT22;62338;48.832;9.422;2023-04-24T04:16:36;8.40;99.90
4787;DHT22;62338;48.832;9.422;2023-04-24T04:18:38;8.40;99.90
4787;DHT22;62338;48.832;9.422;2023-04-24T04:20:40;8.40;99.90
4787;DHT22;62338;48.832;9.422;2023-04-24T04:22:42;8.40;99.90
4787;DHT22;62338;48.832;9.422;2023-04-24T04:24:45;8.40;99.90
4787;DHT22;62338;48.832;9.422;2023-04-24T04:26:47;8.50;99.90
4787;DHT22;62338;48.832;9.422;2023-04-24T04:28:52;8.50;99.90
4787;DHT22;62338;48.832;9.422;2023-04-24T04:30:54;8.50;99.90
4787;DHT22;62338;48.832;9.422;2023-04-24T04:32:56;8.60;99.90
4787;DHT22;62338;48.832;9.422;2023-04-24T04:34:59;8.50;99.90
4787;DHT22;62338;48.832;9.422;2023-04-24T04:37:04;8.50;99.90
4787;DHT22;62338;48.832;9.422;2023-04-24T04:39:06;8.60;99.90
4787;DHT22;62338;48.832;9.422;2023-04-24T04:41:08;8.60;99.90
4787;DHT22;62338;48.832;9.422;2023-04-24T04:43:11;8.60;99.90
4787;DHT22;62338;48.832;9.422;2023-04-24T04:45:14;8.60;99.90
4787;DHT22;62338;48.832;9.422;2023-04-24T04:47:20;8.50;99.90
4787;DHT22;62338;48.832;9.422;2023-04-24T04:49:24;8.50;99.90
4787;DHT22;62338;48.832;9.422;2023-04-24T04:51:25;8.40;99.90
4787;DHT22;62338;48.832;9.422;2023-04-24T04:53:27;8.40;99.90
4787;DHT22;62338;48.832;9.422;2023-04-24T04:55:29;8.30;99.90
4787;DHT22;62338;48.832;9.422;2023-04-24T04:57:31;8.20;99.90
4787;DHT22;62338;48.832;9.422;2023-04-24T04:59:33;8.10;99.90
4787;DHT22;62338;48.832;9.422;2023-04-24T05:01:34;8.10;99.90
4787;DHT22;62338;48.832;9.422;2023-04-24T05:03:37;8.00;99.90
4787;DHT22;62338;48.832;9.422;2023-04-24T05:05:39;8.00;99.90
4787;DHT22;62338;48.832;9.422;2023-04-24T05:07:42;8.00;99.90
4787;DHT22;62338;48.832;9.422;2023-04-24T05:09:43;8.00;99.90
4787;DHT22;62338;48.832;9.422;2023-04-24T05:11:46;7.90;99.90
4787;DHT22;62338;48.832;9.422;2023-04-24T05:13:48;7.90;99.90
4787;DHT22;62338;48.832;9.422;2023-04-24T05:15:49;7.90;99.90
4787;DHT22;62338;48.832;9.422;2023-04-24T05:17:51;7.90;99.90
4787;DHT22;62338;48.832;9.422;2023-04-24T05:19:53;7.90;99.90
4787;DHT22;62338;48.832;9.422;2023-04-24T05:21:55;7.90;99.90
4787;DHT22;62338;48.832;9.422;2023-04-24T05:23:57;7.90;99.90
4787;DHT22;62338;48.832;9.422;2023-04-24T05:25:58;7.90;99.90
4787;DHT22;62338;48.832;9.422;2023-04-24T05:28:00;7.90;99.90
4787;DHT22;62338;48.832;9.422;2023-04-24T05:30:02;7.90;99.90
4787;DHT22;62338;48.832;9.422;2023-04-24T05:32:04;7.80;99.90
4787;DHT22;62338;48.832;9.422;2023-04-24T05:34:06;7.80;99.90
4787;DHT22;62338;48.832;9.422;2023-04-24T05:36:08;7.80;99.90
4787;DHT22;62338;48.832;9.422;2023-04-24T05:38:09;7.80;99.90
4787;DHT22;62338;48.832;9.422;2023-04-24T05:40:11;7.80;99.90
4787;DHT22;62338;48.832;9.422;2023-04-24T05:42:13;7.70;99.90
4787;DHT22;62338;48.832;9.422;2023-04-24T05:44:15;7.70;99.90
4787;DHT22;62338;48.832;9.422;2023-04-24T05:46:16;7.80;99.90
4787;DHT22;62338;48.832;9.422;2023-04-24T05:48:18;7.80;99.90
4787;DHT22;62338;48.832;9.422;2023-04-24T05:50:20;7.80;99.90
4787;DHT22;62338;48.832;9.422;2023-04-24T05:52:22;7.80;99.90
4787;DHT22;62338;48.832;9.422;2023-04-24T05:54:24;7.80;99.90
4787;DHT22;62338;48.832;9.422;2023-04-24T05:56:25;7.80;99.90
4787;DHT22;62338;48.832;9.422;2023-04-24T05:58:27;7.80;99.90
4787;DHT22;62338;48.832;9.422;2023-04-24T06:00:29;7.80;99.90
4787;DHT22;62338;48.832;9.422;2023-04-24T06:02:30;7.80;99.90
4787;DHT22;62338;48.832;9.422;2023-04-24T06:04:34;7.90;99.90
4787;DHT22;62338;48.832;9.422;2023-04-24T06:06:36;8.00;99.90
4787;DHT22;62338;48.832;9.422;2023-04-24T06:08:38;8.10;99.90
4787;DHT22;62338;48.832;9.422;2023-04-24T06:10:40;8.20;99.90
4787;DHT22;62338;48.832;9.422;2023-04-24T06:12:41;8.20;99.90
4787;DHT22;62338;48.832;9.422;2023-04-24T06:14:43;8.30;99.90
4787;DHT22;62338;48.832;9.422;2023-04-24T06:16:45;8.30;99.90
4787;DHT22;62338;48.832;9.422;2023-04-24T06:18:50;8.20;99.90
4787;DHT22;62338;48.832;9.422;2023-04-24T06:20:52;8.30;99.90
4787;DHT22;62338;48.832;9.422;2023-04-24T06:22:54;8.30;99.90
4787;DHT22;62338;48.832;9.422;2023-04-24T06:24:56;8.30;99.90
4787;DHT22;62338;48.832;9.422;2023-04-24T06:26:57;8.30;99.90
4787;DHT22;62338;48.832;9.422;2023-04-24T06:29:01;8.30;99.90
4787;DHT22;62338;48.832;9.422;2023-04-24T06:31:03;8.30;99.90
4787;DHT22;62338;48.832;9.422;2023-04-24T06:33:05;8.20;99.90
4787;DHT22;62338;48.832;9.422;2023-04-24T06:35:20;8.20;99.90
4787;DHT22;62338;48.832;9.422;2023-04-24T06:37:22;8.20;99.90
4787;DHT22;62338;48.832;9.422;2023-04-24T06:39:24;8.40;99.90
4787;DHT22;62338;48.832;9.422;2023-04-24T06:41:25;8.60;99.90
4787;DHT22;62338;48.832;9.422;2023-04-24T06:43:27;8.70;99.90
4787;DHT22;62338;48.832;9.422;2023-04-24T06:45:30;9.10;94.00
4787;DHT22;62338;48.832;9.422;2023-04-24T06:47:32;10.10;1.00
4787;DHT22;62338;48.832;9.422;2023-04-24T06:49:35;11.20;1.00
4787;DHT22;62338;48.832;9.422;2023-04-24T06:51:37;12.40;1.00
4787;DHT22;62338;48.832;9.422;2023-04-24T06:53:38;13.40;1.00
4787;DHT22;62338;48.832;9.422;2023-04-24T06:55:40;14.20;99.90
4787;DHT22;62338;48.832;9.422;2023-04-24T06:57:42;14.80;1.00
4787;DHT22;62338;48.832;9.422;2023-04-24T06:59:44;14.80;99.90
4787;DHT22;62338;48.832;9.422;2023-04-24T07:01:46;15.00;1.00
4787;DHT22;62338;48.832;9.422;2023-04-24T07:03:47;15.70;1.00
4787;DHT22;62338;48.832;9.422;2023-04-24T07:05:49;16.30;7.30
4787;DHT22;62338;48.832;9.422;2023-04-24T07:07:52;16.60;1.00
4787;DHT22;62338;48.832;9.422;2023-04-24T07:09:54;15.90;1.00
4787;DHT22;62338;48.832;9.422;2023-04-24T07:11:57;16.10;1.00
4787;DHT22;62338;48.832;9.422;2023-04-24T07:13:59;16.00;99.90
4787;DHT22;62338;48.832;9.422;2023-04-24T07:16:01;14.90;1.00
4787;DHT22;62338;48.832;9.422;2023-04-24T07:18:03;14.20;90.30
4787;DHT22;62338;48.832;9.422;2023-04-24T07:20:06;13.60;1.00
4787;DHT22;62338;48.832;9.422;2023-04-24T07:22:10;13.20;1.00
4787;DHT22;62338;48.832;9.422;2023-04-24T07:24:18;13.90;1.00
4787;DHT22;62338;48.832;9.422;2023-04-24T07:26:22;14.90;13.40
4787;DHT22;62338;48.832;9.422;2023-04-24T07:28:24;15.30;1.00
4787;DHT22;62338;48.832;9.422;2023-04-24T07:30:27;15.40;1.00
4787;DHT22;62338;48.832;9.422;2023-04-24T07:32:30;14.70;62.80
4787;DHT22;62338;48.832;9.422;2023-04-24T07:34:32;13.80;99.90
4787;DHT22;62338;48.832;9.422;2023-04-24T07:36:34;13.00;1.00
4787;DHT22;62338;48.832;9.422;2023-04-24T07:38:35;12.00;99.90
4787;DHT22;62338;48.832;9.422;2023-04-24T07:40:37;11.20;51.70
4787;DHT22;62338;48.832;9.422;2023-04-24T07:42:39;10.70;1.00
4787;DHT22;62338;48.832;9.422;2023-04-24T07:44:41;10.20;1.00
4787;DHT22;62338;48.832;9.422;2023-04-24T07:46:43;9.70;1.00
4787;DHT22;62338;48.832;9.422;2023-04-24T07:48:44;9.40;1.00
4787;DHT22;62338;48.832;9.422;2023-04-24T07:50:48;9.30;1.00
4787;DHT22;62338;48.832;9.422;2023-04-24T07:52:50;9.40;1.00
4787;DHT22;62338;48.832;9.422;2023-04-24T07:54:51;9.40;1.00
4787;DHT22;62338;48.832;9.422;2023-04-24T07:56:59;9.50;1.00
4787;DHT22;62338;48.832;9.422;2023-04-24T07:59:02;9.50;1.00
4787;DHT22;62338;48.832;9.422;2023-04-24T08:01:04;9.60;1.00
4787;DHT22;62338;48.832;9.422;2023-04-24T08:03:05;9.80;1.00
4787;DHT22;62338;48.832;9.422;2023-04-24T08:05:08;10.30;99.90
4787;DHT22;62338;48.832;9.422;2023-04-24T08:07:10;10.70;99.90
4787;DHT22;62338;48.832;9.422;2023-04-24T08:09:14;10.80;1.00
4787;DHT22;62338;48.832;9.422;2023-04-24T08:11:16;10.60;1.00
4787;DHT22;62338;48.832;9.422;2023-04-24T08:13:18;10.40;1.00
4787;DHT22;62338;48.832;9.422;2023-04-24T08:15:20;10.20;1.00
4787;DHT22;62338;48.832;9.422;2023-04-24T08:17:21;10.40;1.00
4787;DHT22;62338;48.832;9.422;2023-04-24T08:19:23;10.50;1.00
4787;DHT22;62338;48.832;9.422;2023-04-24T08:21:25;10.80;1.00
4787;DHT22;62338;48.832;9.422;2023-04-24T08:23:28;10.90;1.00
4787;DHT22;62338;48.832;9.422;2023-04-24T08:25:31;11.00;1.00
4787;DHT22;62338;48.832;9.422;2023-04-24T08:27:33;11.00;99.90
4787;DHT22;62338;48.832;9.422;2023-04-24T08:29:35;11.10;99.90
4787;DHT22;62338;48.832;9.422;2023-04-24T08:31:37;11.20;1.00
4787;DHT22;62338;48.832;9.422;2023-04-24T08:33:39;11.10;99.90
4787;DHT22;62338;48.832;9.422;2023-04-24T08:35:42;11.00;99.90
4787;DHT22;62338;48.832;9.422;2023-04-24T08:37:44;11.40;1.00
4787;DHT22;62338;48.832;9.422;2023-04-24T08:39:46;11.50;72.30
4787;DHT22;62338;48.832;9.422;2023-04-24T08:41:48;12.20;1.00
4787;DHT22;62338;48.832;9.422;2023-04-24T08:43:51;12.30;1.00
4787;DHT22;62338;48.832;9.422;2023-04-24T08:45:56;12.60;1.00
4787;DHT22;62338;48.832;9.422;2023-04-24T08:47:58;12.60;1.00
4787;DHT22;62338;48.832;9.422;2023-04-24T08:50:03;12.50;99.90
4787;DHT22;62338;48.832;9.422;2023-04-24T08:52:07;12.20;1.00
4787;DHT22;62338;48.832;9.422;2023-04-24T08:54:09;12.50;99.90
4787;DHT22;62338;48.832;9.422;2023-04-24T08:56:11;12.30;9.30
4787;DHT22;62338;48.832;9.422;2023-04-24T08:58:15;12.00;1.00
4787;DHT22;62338;48.832;9.422;2023-04-24T09:00:19;11.80;99.90
4787;DHT22;62338;48.832;9.422;2023-04-24T09:02:21;11.90;99.90
4787;DHT22;62338;48.832;9.422;2023-04-24T09:04:25;12.50;99.90
4787;DHT22;62338;48.832;9.422;2023-04-24T09:06:28;13.20;99.90
4787;DHT22;62338;48.832;9.422;2023-04-24T09:08:32;12.80;99.90
4787;DHT22;62338;48.832;9.422;2023-04-24T09:10:35;12.20;1.00
4787;DHT22;62338;48.832;9.422;2023-04-24T09:12:36;11.40;99.90
4787;DHT22;62338;48.832;9.422;2023-04-24T09:14:38;10.90;1.00
4787;DHT22;62338;48.832;9.422;2023-04-24T09:16:44;10.60;1.00
4787;DHT22;62338;48.832;9.422;2023-04-24T09:18:46;10.40;1.00
4787;DHT22;62338;48.832;9.422;2023-04-24T09:21:01;10.40;99.90
4787;DHT22;62338;48.832;9.422;2023-04-24T09:23:04;10.40;99.90
4787;DHT22;62338;48.832;9.422;2023-04-24T09:25:07;10.70;99.90
4787;DHT22;62338;48.832;9.422;2023-04-24T09:27:11;10.90;1.00
4787;DHT22;62338;48.832;9.422;2023-04-24T09:29:17;11.00;99.90
4787;DHT22;62338;48.832;9.422;2023-04-24T09:31:19;10.90;99.90
4787;DHT22;62338;48.832;9.422;2023-04-24T09:33:23;10.70;1.00
4787;DHT22;62338;48.832;9.422;2023-04-24T09:35:25;10.40;99.90
4787;DHT22;62338;48.832;9.422;2023-04-24T09:37:28;10.10;1.00
4787;DHT22;62338;48.832;9.422;2023-04-24T09:39:30;9.80;1.00
4787;DHT22;62338;48.832;9.422;2023-04-24T09:41:33;9.80;99.90
4787;DHT22;62338;48.832;9.422;2023-04-24T09:43:35;9.70;1.00
4787;DHT22;62338;48.832;9.422;2023-04-24T09:45:38;9.60;99.90
4787;DHT22;62338;48.832;9.422;2023-04-24T09:47:41;9.50;99.90
4787;DHT22;62338;48.832;9.422;2023-04-24T09:49:43;9.40;99.90
4787;DHT22;62338;48.832;9.422;2023-04-24T09:51:45;9.30;1.00
4787;DHT22;62338;48.832;9.422;2023-04-24T09:53:47;9.30;99.90
4787;DHT22;62338;48.832;9.422;2023-04-24T09:55:49;9.20;99.90
4787;DHT22;62338;48.832;9.422;2023-04-24T09:59:58;9.10;1.00
4787;DHT22;62338;48.832;9.422;2023-04-24T10:02:00;9.20;99.90
4787;DHT22;62338;48.832;9.422;2023-04-24T10:04:02;9.40;99.90
4787;DHT22;62338;48.832;9.422;2023-04-24T10:06:04;9.70;99.90
4787;DHT22;62338;48.832;9.422;2023-04-24T10:08:12;10.50;71.50
4787;DHT22;62338;48.832;9.422;2023-04-24T10:10:14;11.20;1.00
4787;DHT22;62338;48.832;9.422;2023-04-24T10:12:17;11.40;70.50
4787;DHT22;62338;48.832;9.422;2023-04-24T10:14:23;11.30;1.00
4787;DHT22;62338;48.832;9.422;2023-04-24T10:16:26;11.20;68.30
4787;DHT22;62338;48.832;9.422;2023-04-24T10:18:29;11.00;93.40
4787;DHT22;62338;48.832;9.422;2023-04-24T10:20:33;10.80;1.00
4787;DHT22;62338;48.832;9.422;2023-04-24T10:22:35;10.90;1.00
4787;DHT22;62338;48.832;9.422;2023-04-24T10:24:37;10.90;1.00
4787;DHT22;62338;48.832;9.422;2023-04-24T10:26:40;10.90;1.00
4787;DHT22;62338;48.832;9.422;2023-04-24T10:28:45;11.40;99.90
4787;DHT22;62338;48.832;9.422;2023-04-24T10:30:47;11.80;99.90
4787;DHT22;62338;48.832;9.422;2023-04-24T10:32:50;12.00;1.00
4787;DHT22;62338;48.832;9.422;2023-04-24T10:34:51;12.10;12.10
4787;DHT22;62338;48.832;9.422;2023-04-24T10:36:54;12.00;1.00
4787;DHT22;62338;48.832;9.422;2023-04-24T10:39:01;12.70;99.90
4787;DHT22;62338;48.832;9.422;2023-04-24T10:41:10;13.60;1.00
4787;DHT22;62338;48.832;9.422;2023-04-24T10:43:18;14.70;1.00
4787;DHT22;62338;48.832;9.422;2023-04-24T10:45:21;14.80;1.00
4787;DHT22;62338;48.832;9.422;2023-04-24T10:47:23;14.20;99.90
4787;DHT22;62338;48.832;9.422;2023-04-24T10:49:30;13.40;1.00
4787;DHT22;62338;48.832;9.422;2023-04-24T10:51:53;12.40;1.00
4787;DHT22;62338;48.832;9.422;2023-04-24T10:53:57;11.90;1.00
4787;DHT22;62338;48.832;9.422;2023-04-24T10:56:03;11.50;21.30
4787;DHT22;62338;48.832;9.422;2023-04-24T10:58:05;11.10;99.90
4787;DHT22;62338;48.832;9.422;2023-04-24T11:00:19;10.60;1.00
4787;DHT22;62338;48.832;9.422;2023-04-24T11:02:36;10.40;1.00
4787;DHT22;62338;48.832;9.422;2023-04-24T11:04:39;10.10;99.90
4787;DHT22;62338;48.832;9.422;2023-04-24T11:06:41;10.00;1.00
4787;DHT22;62338;48.832;9.422;2023-04-24T11:08:45;9.90;1.00
4787;DHT22;62338;48.832;9.422;2023-04-24T11:12:58;9.90;1.00
4787;DHT22;62338;48.832;9.422;2023-04-24T11:15:03;10.10;91.60
4787;DHT22;62338;48.832;9.422;2023-04-24T11:17:05;10.40;99.90
4787;DHT22;62338;48.832;9.422;2023-04-24T11:19:09;10.60;99.90
4787;DHT22;62338;48.832;9.422;2023-04-24T11:21:12;10.70;1.00
4787;DHT22;62338;48.832;9.422;2023-04-24T11:23:14;10.80;99.90
4787;DHT22;62338;48.832;9.422;2023-04-24T11:25:16;10.80;99.90
4787;DHT22;62338;48.832;9.422;2023-04-24T11:27:19;10.80;99.90
4787;DHT22;62338;48.832;9.422;2023-04-24T11:29:22;11.00;1.00
4787;DHT22;62338;48.832;9.422;2023-04-24T11:31:39;11.20;70.10
4787;DHT22;62338;48.832;9.422;2023-04-24T11:33:42;11.30;1.00
4787;DHT22;62338;48.832;9.422;2023-04-24T11:35:43;11.40;1.00
4787;DHT22;62338;48.832;9.422;2023-04-24T11:37:47;11.40;1.00
4787;DHT22;62338;48.832;9.422;2023-04-24T11:39:58;11.40;1.00
4787;DHT22;62338;48.832;9.422;2023-04-24T11:42:04;11.20;49.40
4787;DHT22;62338;48.832;9.422;2023-04-24T11:44:09;11.20;1.00
4787;DHT22;62338;48.832;9.422;2023-04-24T11:46:11;11.30;99.90
4787;DHT22;62338;48.832;9.422;2023-04-24T11:48:18;11.40;1.00
4787;DHT22;62338;48.832;9.422;2023-04-24T11:50:26;11.50;1.00
4787;DHT22;62338;48.832;9.422;2023-04-24T11:52:30;11.50;1.00
4787;DHT22;62338;48.832;9.422;2023-04-24T11:54:32;11.60;1.00
4787;DHT22;62338;48.832;9.422;2023-04-24T11:56:34;11.90;1.00
4787;DHT22;62338;48.832;9.422;2023-04-24T11:58:37;12.10;1.00
4787;DHT22;62338;48.832;9.422;2023-04-24T12:00:39;12.10;99.90
4787;DHT22;62338;48.832;9.422;2023-04-24T12:02:42;11.70;99.90
4787;DHT22;62338;48.832;9.422;2023-04-24T12:04:44;11.70;99.90
4787;DHT22;62338;48.832;9.422;2023-04-24T12:07:05;11.40;99.90
4787;DHT22;62338;48.832;9.422;2023-04-24T12:09:06;11.20;1.00
4787;DHT22;62338;48.832;9.422;2023-04-24T12:11:18;11.00;1.00
4787;DHT22;62338;48.832;9.422;2023-04-24T12:13:21;10.70;1.00
4787;DHT22;62338;48.832;9.422;2023-04-24T12:15:23;10.30;99.90
4787;DHT22;62338;48.832;9.422;2023-04-24T12:17:27;10.00;1.00
4787;DHT22;62338;48.832;9.422;2023-04-24T12:19:30;9.70;99.90
4787;DHT22;62338;48.832;9.422;2023-04-24T12:21:32;9.30;99.90
4787;DHT22;62338;48.832;9.422;2023-04-24T12:23:34;9.10;99.90
4787;DHT22;62338;48.832;9.422;2023-04-24T12:25:38;9.20;1.00
4787;DHT22;62338;48.832;9.422;2023-04-24T12:27:40;9.30;1.00
4787;DHT22;62338;48.832;9.422;2023-04-24T12:30:02;9.50;93.20
4787;DHT22;62338;48.832;9.422;2023-04-24T12:32:04;9.80;99.90
4787;DHT22;62338;48.832;9.422;2023-04-24T12:34:20;10.00;1.00
4787;DHT22;62338;48.832;9.422;2023-04-24T12:36:22;10.10;99.90
4787;DHT22;62338;48.832;9.422;2023-04-24T12:38:25;10.10;99.90
4787;DHT22;62338;48.832;9.422;2023-04-24T12:40:27;10.10;1.00
4787;DHT22;62338;48.832;9.422;2023-04-24T12:42:30;10.10;1.00
4787;DHT22;62338;48.832;9.422;2023-04-24T12:44:33;10.10;1.00
4787;DHT22;62338;48.832;9.422;2023-04-24T12:46:36;10.00;99.90
4787;DHT22;62338;48.832;9.422;2023-04-24T12:48:37;10.00;1.00
4787;DHT22;62338;48.832;9.422;2023-04-24T12:50:40;10.00;99.90
4787;DHT22;62338;48.832;9.422;2023-04-24T12:52:44;10.00;99.90
4787;DHT22;62338;48.832;9.422;2023-04-24T12:54:46;10.00;1.00
4787;DHT22;62338;48.832;9.422;2023-04-24T12:56:48;10.00;1.00
4787;DHT22;62338;48.832;9.422;2023-04-24T12:58:50;10.00;1.00
4787;DHT22;62338;48.832;9.422;2023-04-24T13:00:53;10.00;1.00
4787;DHT22;62338;48.832;9.422;2023-04-24T13:02:55;10.00;99.90
4787;DHT22;62338;48.832;9.422;2023-04-24T13:04:58;10.00;1.00
4787;DHT22;62338;48.832;9.422;2023-04-24T13:07:00;10.00;99.90
4787;DHT22;62338;48.832;9.422;2023-04-24T13:09:02;10.20;99.90
4787;DHT22;62338;48.832;9.422;2023-04-24T13:11:03;10.20;99.90
4787;DHT22;62338;48.832;9.422;2023-04-24T13:13:06;10.40;1.00
4787;DHT22;62338;48.832;9.422;2023-04-24T13:15:08;10.50;99.90
4787;DHT22;62338;48.832;9.422;2023-04-24T13:17:10;10.40;46.20
4787;DHT22;62338;48.832;9.422;2023-04-24T13:19:13;10.40;99.90
4787;DHT22;62338;48.832;9.422;2023-04-24T13:21:15;10.40;1.00
4787;DHT22;62338;48.832;9.422;2023-04-24T13:23:16;10.30;1.00